Time;durP1;ratioP1;P1;durP2;ratioP2;P2;SDS_P1;SDS_P2;PMS_P1;PMS_P2;Temp;Humidity;BMP_temperature;BMP_pressure;BME280_temperature;BME280_humidity;BME280_pressure;Samples;Min_cycle;Max_cycle;Signal;HPM_P1;HPM_P2
2022/06/22 00:02:35;;;;;;;13.68;7.15;;;14.80;99.90;;;;;;5055356;28;20055;-69
2022/06/22 00:05:04;;;;;;;12.77;7.63;;;14.80;99.90;;;;;;5056762;28;20053;-70
2022/06/22 00:07:38;;;;;;;11.32;6.93;;;14.80;99.90;;;;;;5056669;28;20057;-69
2022/06/22 00:10:29;;;;;;;13.18;7.22;;;14.70;99.90;;;;;;5055675;28;20037;-69
2022/06/22 00:12:57;;;;;;;11.57;7.03;;;14.70;99.90;;;;;;5056559;28;20060;-69
2022/06/22 00:15:37;;;;;;;13.55;7.68;;;14.70;99.90;;;;;;5055445;28;20059;-69
2022/06/22 00:18:33;;;;;;;12.18;7.30;;;14.90;99.90;;;;;;5055486;28;20091;-69
2022/06/22 00:21:03;;;;;;;11.98;7.43;;;14.80;99.90;;;;;;5056312;28;20055;-69
2022/06/22 00:23:34;;;;;;;11.95;7.82;;;14.70;99.90;;;;;;5056223;28;20041;-70
2022/06/22 00:26:32;;;;;;;11.30;6.53;;;14.70;99.90;;;;;;5056185;28;20124;-69
2022/06/22 00:29:00;;;;;;;9.18;6.65;;;14.80;99.90;;;;;;5055782;28;20049;-69
2022/06/22 00:31:42;;;;;;;10.50;7.10;;;14.70;99.90;;;;;;5055690;28;20064;-69
2022/06/22 00:34:10;;;;;;;11.10;7.10;;;14.70;99.90;;;;;;5056032;28;20053;-69
2022/06/22 00:36:54;;;;;;;9.80;6.15;;;14.70;99.90;;;;;;5056035;28;20068;-70
2022/06/22 00:39:29;;;;;;;9.57;6.47;;;14.60;99.90;;;;;;5056073;28;20045;-69
2022/06/22 00:42:16;;;;;;;10.30;6.85;;;14.60;99.90;;;;;;5055693;28;20098;-69
2022/06/22 00:44:56;;;;;;;12.52;6.90;;;14.40;99.90;;;;;;5055799;28;20052;-69
2022/06/22 00:47:33;;;;;;;12.50;6.90;;;14.30;99.90;;;;;;5055626;28;20045;-69
2022/06/22 00:50:14;;;;;;;12.48;7.18;;;14.20;99.90;;;;;;5054377;28;20087;-69
2022/06/22 00:52:45;;;;;;;11.57;6.75;;;14.20;99.90;;;;;;5054705;28;20092;-69
2022/06/22 00:55:30;;;;;;;10.27;6.75;;;14.10;99.90;;;;;;5054783;28;20057;-69
2022/06/22 00:58:05;;;;;;;8.05;6.40;;;14.10;99.90;;;;;;5054726;28;20060;-69
2022/06/22 01:00:36;;;;;;;10.98;7.28;;;14.10;99.90;;;;;;5055105;28;20080;-69
2022/06/22 01:03:13;;;;;;;9.95;7.53;;;14.10;99.90;;;;;;5038365;28;20053;-69
2022/06/22 01:05:56;;;;;;;12.10;7.80;;;14.10;99.90;;;;;;5055438;28;20048;-69
2022/06/22 01:08:38;;;;;;;12.23;7.75;;;14.00;99.90;;;;;;5054516;28;20049;-69
2022/06/22 01:14:34;;;;;;;11.30;7.63;;;14.00;99.90;;;;;;5055207;28;20056;-69
2022/06/22 01:17:01;;;;;;;11.80;7.93;;;13.90;99.90;;;;;;5046806;28;20060;-69
2022/06/22 01:19:30;;;;;;;12.90;7.75;;;13.80;99.90;;;;;;5054238;28;20056;-69
2022/06/22 01:22:30;;;;;;;14.30;8.13;;;13.80;99.90;;;;;;5055049;28;20053;-69
2022/06/22 01:25:02;;;;;;;14.85;8.60;;;13.80;99.90;;;;;;5054329;28;20060;-69
2022/06/22 01:27:36;;;;;;;13.02;8.45;;;13.80;99.90;;;;;;5054888;28;20057;-69
2022/06/22 01:30:34;;;;;;;12.63;8.10;;;13.90;99.90;;;;;;5054019;28;20056;-69
2022/06/22 01:33:13;;;;;;;10.85;7.38;;;13.80;99.90;;;;;;5051030;28;20076;-69
2022/06/22 01:35:39;;;;;;;11.90;7.97;;;13.70;99.90;;;;;;5054886;28;20049;-69
2022/06/22 01:38:24;;;;;;;12.95;7.95;;;13.80;99.90;;;;;;5054641;28;20059;-69
2022/06/22 01:41:02;;;;;;;10.15;7.20;;;13.90;99.90;;;;;;5054901;28;20056;-69
2022/06/22 01:43:37;;;;;;;9.68;7.38;;;13.50;99.90;;;;;;5053612;28;20049;-69
2022/06/22 01:46:19;;;;;;;9.83;7.07;;;13.50;99.90;;;;;;5054767;28;20075;-69
2022/06/22 01:49:10;;;;;;;11.82;6.70;;;13.50;99.90;;;;;;5054443;28;20053;-69
2022/06/22 01:51:46;;;;;;;13.00;8.00;;;13.70;99.90;;;;;;5054648;28;20049;-69
2022/06/22 01:54:32;;;;;;;13.10;7.70;;;13.60;99.90;;;;;;5053469;28;20056;-69
2022/06/22 01:57:06;;;;;;;12.48;8.15;;;13.50;99.90;;;;;;5054240;28;20084;-69
2022/06/22 01:59:46;;;;;;;12.35;8.45;;;13.50;99.90;;;;;;5069776;28;20051;-69
2022/06/22 02:02:23;;;;;;;13.90;8.00;;;13.60;99.90;;;;;;5054192;28;20579;-69
2022/06/22 02:05:06;;;;;;;11.50;7.60;;;13.60;99.90;;;;;;5054369;28;20510;-69
2022/06/22 02:07:47;;;;;;;9.95;7.32;;;13.60;99.90;;;;;;5054640;28;20052;-69
2022/06/22 02:10:40;;;;;;;10.65;7.80;;;13.60;99.90;;;;;;5054318;28;20380;-69
2022/06/22 02:13:29;;;;;;;9.27;7.03;;;13.60;99.90;;;;;;5054259;28;20488;-69
2022/06/22 02:16:01;;;;;;;10.38;7.20;;;13.60;99.90;;;;;;5054183;28;20502;-69
2022/06/22 02:18:38;;;;;;;10.70;7.03;;;13.60;99.90;;;;;;5054257;28;20047;-69
2022/06/22 02:21:20;;;;;;;11.77;7.25;;;13.50;99.90;;;;;;5053251;28;20056;-69
2022/06/22 02:23:57;;;;;;;8.98;6.25;;;13.50;99.90;;;;;;5053996;28;20084;-69
2022/06/22 02:26:43;;;;;;;8.68;6.65;;;13.50;99.90;;;;;;5054112;28;20056;-69
2022/06/22 02:29:10;;;;;;;8.85;6.43;;;13.50;99.90;;;;;;5053846;28;20041;-69
2022/06/22 02:31:36;;;;;;;9.00;6.93;;;13.50;99.90;;;;;;5053020;28;20052;-69
2022/06/22 02:34:01;;;;;;;11.48;6.88;;;13.50;99.90;;;;;;5054019;28;20406;-71
2022/06/22 02:36:31;;;;;;;11.20;6.75;;;13.40;99.90;;;;;;5052703;28;20041;-69
2022/06/22 02:39:01;;;;;;;10.25;6.35;;;13.30;99.90;;;;;;5052621;28;20107;-69
2022/06/22 02:44:32;;;;;;;9.18;6.53;;;13.10;99.90;;;;;;5053565;28;20049;-71
2022/06/22 02:47:18;;;;;;;7.90;5.85;;;13.10;99.90;;;;;;5052486;28;20349;-70
2022/06/22 02:50:01;;;;;;;11.98;6.78;;;13.10;99.90;;;;;;5053555;28;20400;-69
2022/06/22 02:52:37;;;;;;;10.32;6.72;;;13.20;99.90;;;;;;5052568;28;20053;-69
2022/06/22 02:55:04;;;;;;;10.65;6.68;;;13.10;99.90;;;;;;5052750;28;20045;-69
2022/06/22 02:57:47;;;;;;;7.72;5.90;;;12.90;99.90;;;;;;5053149;28;20057;-69
2022/06/22 03:00:16;;;;;;;7.20;5.18;;;12.90;99.90;;;;;;5053302;28;20442;-69
2022/06/22 03:02:42;;;;;;;5.70;4.60;;;12.80;99.90;;;;;;5053260;28;20037;-69
2022/06/22 03:05:10;;;;;;;7.18;5.05;;;12.90;99.90;;;;;;5053312;28;20056;-69
2022/06/22 03:07:40;;;;;;;6.65;5.32;;;12.90;99.90;;;;;;5067920;28;20060;-69
2022/06/22 03:10:07;;;;;;;8.35;5.63;;;12.80;99.90;;;;;;5053308;28;20072;-69
2022/06/22 03:12:33;;;;;;;7.05;5.40;;;12.90;99.90;;;;;;5053113;28;20083;-69
2022/06/22 03:15:03;;;;;;;9.18;5.93;;;12.90;99.90;;;;;;5053498;28;20053;-69
2022/06/22 03:17:35;;;;;;;7.90;5.60;;;12.90;99.90;;;;;;5052322;28;20053;-69
2022/06/22 03:20:13;;;;;;;9.07;6.10;;;13.00;99.90;;;;;;5067344;28;20167;-69
2022/06/22 03:22:47;;;;;;;8.95;6.28;;;13.00;99.90;;;;;;5051297;28;20369;-69
2022/06/22 03:25:24;;;;;;;7.97;5.40;;;12.90;99.90;;;;;;5053301;28;20098;-69
2022/06/22 03:28:03;;;;;;;7.43;5.25;;;12.90;99.90;;;;;;5052566;28;20057;-69
2022/06/22 03:30:35;;;;;;;9.18;6.13;;;12.90;99.90;;;;;;5052664;28;20060;-69
2022/06/22 03:33:08;;;;;;;5.97;5.22;;;13.00;99.90;;;;;;5052286;28;20055;-69
2022/06/22 03:35:45;;;;;;;7.25;5.78;;;13.20;99.90;;;;;;5053304;28;20049;-69
2022/06/22 03:38:34;;;;;;;6.53;5.65;;;13.20;99.90;;;;;;5053239;28;20089;-69
2022/06/22 03:41:03;;;;;;;6.85;5.57;;;13.30;99.90;;;;;;5052861;28;20048;-69
2022/06/22 03:43:45;;;;;;;9.70;6.30;;;13.30;99.90;;;;;;5053215;28;20076;-69
2022/06/22 03:46:21;;;;;;;8.57;6.38;;;13.30;99.90;;;;;;5053305;28;20049;-69
2022/06/22 03:48:56;;;;;;;9.75;6.28;;;13.20;99.90;;;;;;5052961;28;20045;-69
2022/06/22 03:51:27;;;;;;;6.75;5.72;;;13.30;99.90;;;;;;5051704;28;20044;-69
2022/06/22 03:54:25;;;;;;;8.32;6.63;;;13.30;99.90;;;;;;5052983;28;20053;-69
2022/06/22 03:56:53;;;;;;;;;;;13.50;99.90;;;;;;5052897;28;20044;-69
2022/06/22 03:59:19;;;;;;;7.63;5.88;;;13.40;99.90;;;;;;5052726;28;20319;-69
2022/06/22 04:01:45;;;;;;;8.15;6.00;;;13.60;99.90;;;;;;5052587;28;20055;-69
2022/06/22 04:04:11;;;;;;;8.27;6.20;;;13.60;99.90;;;;;;5052648;28;20487;-69
2022/06/22 04:06:49;;;;;;;9.23;6.93;;;13.70;99.90;;;;;;5052956;28;20399;-69
2022/06/22 04:09:21;;;;;;;8.18;6.40;;;13.70;99.90;;;;;;5051666;28;20495;-69
2022/06/22 04:12:08;;;;;;;7.72;6.10;;;13.60;99.90;;;;;;5051492;28;20059;-69
2022/06/22 04:14:43;;;;;;;9.20;6.57;;;13.60;99.90;;;;;;5051679;28;20055;-69
2022/06/22 04:17:30;;;;;;;7.70;6.38;;;13.60;99.90;;;;;;5052166;28;20049;-69
2022/06/22 04:20:16;;;;;;;8.35;6.03;;;13.60;99.90;;;;;;5055434;28;20511;-69
2022/06/22 04:22:46;;;;;;;6.68;5.20;;;13.60;99.90;;;;;;5056089;28;20099;-70
2022/06/22 04:25:27;;;;;;;6.82;5.13;;;13.50;99.90;;;;;;5056248;28;20103;-69
2022/06/22 04:27:56;;;;;;;6.68;5.47;;;13.60;99.90;;;;;;5055382;28;20569;-69
2022/06/22 04:30:29;;;;;;;6.93;5.72;;;13.60;99.90;;;;;;5054348;28;20508;-69
2022/06/22 04:33:15;;;;;;;8.07;5.88;;;13.60;99.90;;;;;;5055305;28;20060;-69
2022/06/22 04:35:49;;;;;;;8.00;5.40;;;13.70;99.90;;;;;;5055016;28;20057;-69
2022/06/22 04:38:40;;;;;;;10.13;6.03;;;13.70;99.90;;;;;;5055079;28;20083;-70
2022/06/22 04:41:22;;;;;;;10.43;6.07;;;13.70;99.90;;;;;;5055017;28;20091;-69
2022/06/22 04:43:49;;;;;;;8.38;6.85;;;14.00;99.90;;;;;;5055645;28;20132;-69
2022/06/22 04:46:21;;;;;;;9.55;6.65;;;13.90;99.90;;;;;;5054779;28;20056;-69
2022/06/22 04:48:49;;;;;;;9.15;6.80;;;14.00;99.90;;;;;;5055679;28;20045;-69
2022/06/22 04:51:25;;;;;;;12.38;7.55;;;14.10;99.90;;;;;;5055654;28;20045;-70
2022/06/22 04:53:58;;;;;;;10.20;6.68;;;14.20;99.90;;;;;;5055760;28;20099;-69
2022/06/22 04:56:39;;;;;;;8.48;6.63;;;14.40;99.90;;;;;;5055668;28;20044;-69
2022/06/22 04:59:07;;;;;;;10.20;6.75;;;14.40;99.90;;;;;;5055257;28;20447;-69
2022/06/22 05:01:35;;;;;;;12.20;7.95;;;14.70;99.90;;;;;;5055185;28;20055;-69
2022/06/22 05:04:05;;;;;;;9.10;6.47;;;15.00;99.90;;;;;;5055646;28;20174;-69
2022/06/22 05:06:47;;;;;;;7.78;6.55;;;15.30;99.90;;;;;;5054386;28;20049;-69
2022/06/22 05:09:26;;;;;;;10.73;7.00;;;15.60;99.90;;;;;;5054333;28;20373;-69
2022/06/22 05:11:52;;;;;;;12.30;8.10;;;15.80;99.90;;;;;;5055397;28;20057;-69
2022/06/22 05:14:25;;;;;;;17.58;10.15;;;16.00;99.90;;;;;;5055154;28;20128;-69
2022/06/22 05:16:57;;;;;;;15.23;10.77;;;16.30;99.90;;;;;;5070946;28;20093;-69
2022/06/22 05:19:28;;;;;;;20.67;11.60;;;16.50;99.90;;;;;;5054205;28;20056;-69
2022/06/22 05:21:56;;;;;;;21.05;12.55;;;16.60;99.90;;;;;;5055171;28;20041;-69
2022/06/22 05:24:35;;;;;;;17.00;12.20;;;16.70;99.90;;;;;;5055108;28;20052;-69
2022/06/22 05:27:07;;;;;;;15.10;10.30;;;16.90;99.90;;;;;;5055175;28;20045;-69
2022/06/22 05:29:37;;;;;;;21.60;12.43;;;17.10;99.90;;;;;;5054142;28;20060;-80
2022/06/22 05:32:09;;;;;;;21.33;12.98;;;17.20;99.90;;;;;;5070168;28;20535;-69
2022/06/22 05:34:38;;;;;;;23.17;12.63;;;17.40;99.90;;;;;;5055256;28;20066;-69
2022/06/22 05:37:30;;;;;;;15.23;10.75;;;17.50;99.90;;;;;;5053872;28;20059;-69
2022/06/22 05:39:57;;;;;;;21.60;11.82;;;17.50;99.90;;;;;;5053504;28;20479;-70
2022/06/22 05:42:24;;;;;;;16.95;10.73;;;17.50;99.90;;;;;;5053870;28;20055;-69
2022/06/22 05:44:52;;;;;;;13.73;8.80;;;17.60;99.90;;;;;;5070430;28;20569;-69
2022/06/22 05:47:27;;;;;;;20.75;11.40;;;17.80;99.90;;;;;;5055051;28;20124;-69
2022/06/22 05:50:27;;;;;;;20.17;11.90;;;18.00;99.90;;;;;;5054442;28;20051;-69
2022/06/22 05:53:03;;;;;;;16.80;11.20;;;18.00;99.90;;;;;;5053720;28;20057;-69
2022/06/22 05:55:39;;;;;;;20.80;11.48;;;18.10;99.90;;;;;;5070473;28;20088;-69
2022/06/22 05:58:13;;;;;;;18.55;10.23;;;18.20;99.90;;;;;;5054619;28;20048;-69
2022/06/22 06:00:44;;;;;;;16.27;8.75;;;18.20;99.90;;;;;;5054112;28;20048;-69
2022/06/22 06:03:15;;;;;;;13.68;9.20;;;18.20;99.90;;;;;;5054192;28;20044;-70
2022/06/22 06:06:00;;;;;;;11.27;6.38;;;18.40;99.90;;;;;;5053518;28;20139;-69
2022/06/22 06:08:42;;;;;;;12.90;5.97;;;18.60;99.90;;;;;;5036948;28;20086;-70
2022/06/22 06:11:17;;;;;;;12.70;6.35;;;18.60;99.90;;;;;;5053968;28;20549;-70
2022/06/22 06:13:49;;;;;;;12.73;6.95;;;18.70;99.90;;;;;;5054584;28;20488;-69
2022/06/22 06:16:42;;;;;;;11.77;7.60;;;18.50;99.90;;;;;;5054273;28;20045;-69
2022/06/22 06:19:10;;;;;;;14.02;6.85;;;18.60;99.90;;;;;;5051523;28;20057;-69
2022/06/22 06:21:37;;;;;;;12.13;6.22;;;18.80;99.90;;;;;;5036331;28;20053;-70
2022/06/22 06:24:18;;;;;;;12.50;7.40;;;19.00;99.90;;;;;;5053882;28;20048;-70
2022/06/22 06:30:07;;;;;;;12.23;4.93;;;19.00;99.90;;;;;;5053462;28;20072;-70
2022/06/22 06:32:46;;;;;;;11.77;5.72;;;19.10;99.90;;;;;;5050404;28;20052;-69
2022/06/22 06:35:39;;;;;;;8.80;4.93;;;19.00;99.90;;;;;;5053119;28;20049;-69
2022/06/22 06:38:14;;;;;;;12.90;5.00;;;19.20;99.90;;;;;;5053576;28;20083;-69
2022/06/22 06:40:47;;;;;;;9.90;4.20;;;19.10;99.90;;;;;;5053272;28;20128;-69
2022/06/22 06:43:36;;;;;;;8.90;4.43;;;19.10;99.90;;;;;;5053538;28;20049;-69
2022/06/22 06:46:03;;;;;;;8.07;4.45;;;19.20;99.90;;;;;;5054143;28;20110;-70
2022/06/22 06:48:32;;;;;;;8.75;4.47;;;19.20;99.90;;;;;;5052709;28;20124;-69
2022/06/22 06:51:03;;;;;;;12.15;4.50;;;18.80;99.90;;;;;;5053473;28;20135;-69
2022/06/22 06:53:36;;;;;;;10.55;4.05;;;18.80;99.90;;;;;;5053579;28;20127;-69
2022/06/22 06:56:27;;;;;;;9.93;4.40;;;19.00;99.90;;;;;;5053877;28;20049;-69
2022/06/22 06:59:01;;;;;;;11.02;4.22;;;19.40;99.90;;;;;;5053398;28;20565;-69
2022/06/22 07:01:31;;;;;;;12.40;5.00;;;19.60;99.90;;;;;;5052212;28;20131;-69
2022/06/22 07:04:03;;;;;;;11.95;5.55;;;19.50;99.90;;;;;;5053558;28;20052;-69
2022/06/22 07:06:30;;;;;;;11.05;4.72;;;19.40;99.90;;;;;;5053380;28;20048;-69
2022/06/22 07:09:00;;;;;;;13.27;5.05;;;19.40;99.90;;;;;;5053456;28;20053;-69
2022/06/22 07:11:31;;;;;;;12.15;4.93;;;19.40;99.90;;;;;;5052115;28;20045;-69
2022/06/22 07:14:06;;;;;;;11.73;5.28;;;19.50;99.90;;;;;;5052449;28;20364;-69
2022/06/22 07:16:32;;;;;;;8.35;4.55;;;19.60;99.90;;;;;;5053228;28;20048;-69
2022/06/22 07:19:19;;;;;;;10.80;5.28;;;19.60;99.90;;;;;;5053351;28;20044;-69
2022/06/22 07:22:07;;;;;;;13.00;5.20;;;19.50;99.90;;;;;;5052426;28;20060;-73
2022/06/22 07:24:42;;;;;;;10.05;4.55;;;19.30;99.90;;;;;;5053272;28;20060;-69
2022/06/22 07:27:28;;;;;;;9.05;5.55;;;19.30;99.90;;;;;;5053588;28;20041;-67
2022/06/22 07:30:06;;;;;;;13.00;5.63;;;19.50;99.90;;;;;;5052703;28;20045;-68
2022/06/22 07:32:46;;;;;;;13.45;4.88;;;19.80;99.90;;;;;;5053045;28;20061;-70
2022/06/22 07:35:34;;;;;;;10.80;4.70;;;20.00;99.90;;;;;;5053347;28;20044;-70
2022/06/22 07:38:29;;;;;;;13.27;4.85;;;20.10;99.90;;;;;;5058374;28;20137;-71
2022/06/22 07:43:40;;;;;;;10.73;4.20;;;20.30;99.90;;;;;;5053155;28;20053;-71
2022/06/22 07:46:10;;;;;;;9.88;3.92;;;20.20;99.90;;;;;;5051753;28;20408;-71
2022/06/22 07:48:40;;;;;;;8.68;4.40;;;20.40;99.90;;;;;;5052336;28;20119;-70
2022/06/22 07:51:13;;;;;;;14.10;4.18;;;20.20;99.90;;;;;;5052767;28;20492;-71
2022/06/22 07:53:51;;;;;;;9.27;3.50;;;20.30;99.90;;;;;;5054815;28;20483;-70
2022/06/22 07:56:21;;;;;;;11.95;3.40;;;20.40;99.90;;;;;;5056862;28;20103;-71
2022/06/22 07:58:54;;;;;;;10.60;3.33;;;20.60;99.90;;;;;;5039303;28;20056;-70
2022/06/22 08:01:31;;;;;;;8.05;3.30;;;20.70;99.90;;;;;;5056359;28;20103;-70
2022/06/22 08:04:03;;;;;;;6.80;2.97;;;20.80;99.90;;;;;;5056424;28;20045;-71
2022/06/22 08:06:39;;;;;;;11.82;3.65;;;20.90;99.90;;;;;;5057313;28;20063;-70
2022/06/22 08:09:23;;;;;;;6.30;2.72;;;21.20;99.90;;;;;;5056453;28;20053;-71
2022/06/22 08:12:17;;;;;;;8.88;3.53;;;21.20;99.90;;;;;;5055100;28;20071;-70
2022/06/22 08:14:46;;;;;;;10.07;4.00;;;21.10;99.80;;;;;;5056581;28;20473;-71
2022/06/22 08:17:35;;;;;;;8.60;3.22;;;20.70;99.90;;;;;;5056454;28;20037;-71
2022/06/22 08:20:02;;;;;;;10.27;3.35;;;20.80;99.90;;;;;;5056445;28;20475;-70
2022/06/22 08:22:28;;;;;;;11.15;3.38;;;20.80;99.90;;;;;;5056029;28;20132;-73
2022/06/22 08:24:55;;;;;;;8.23;3.90;;;21.00;99.90;;;;;;5056259;28;20157;-71
2022/06/22 08:27:23;;;;;;;11.80;4.13;;;21.20;99.90;;;;;;5055943;28;20488;-71
2022/06/22 08:29:50;;;;;;;8.25;4.43;;;21.40;99.90;;;;;;5055625;28;20472;-71
2022/06/22 08:32:31;;;;;;;12.05;3.75;;;21.50;99.90;;;;;;5056055;28;20079;-71
2022/06/22 08:35:12;;;;;;;6.43;3.15;;;21.70;99.90;;;;;;5055903;28;20048;-71
2022/06/22 08:37:47;;;;;;;7.93;3.35;;;21.70;99.90;;;;;;5056124;28;20136;-71
2022/06/22 08:40:22;;;;;;;13.07;3.67;;;21.70;99.10;;;;;;5056015;28;20049;-71
2022/06/22 08:43:25;;;;;;;;;;;;;;;;;;;;;
2022/06/22 08:46:40;;;;;;;8.93;3.58;;;21.20;99.70;;;;;;5057402;28;20052;-90
2022/06/22 08:49:23;;;;;;;10.85;4.25;;;20.90;99.90;;;;;;5038460;28;20114;-70
2022/06/22 08:51:51;;;;;;;11.90;4.80;;;21.00;99.90;;;;;;5054559;28;20373;-70
2022/06/22 08:54:35;;;;;;;11.23;4.80;;;21.30;99.90;;;;;;5055594;28;20048;-70
2022/06/22 08:57:28;;;;;;;11.25;3.63;;;21.60;99.90;;;;;;5056123;28;20174;-70
2022/06/22 09:00:20;;;;;;;12.55;4.03;;;22.10;99.90;;;;;;5055297;28;20044;-70
2022/06/22 09:03:15;;;;;;;11.55;4.00;;;22.50;99.90;;;;;;5055559;28;20083;-70
2022/06/22 09:05:59;;;;;;;10.30;4.07;;;22.60;99.90;;;;;;5055497;28;20049;-70
2022/06/22 09:08:34;;;;;;;8.82;3.90;;;22.60;99.90;;;;;;5054339;28;20045;-71
2022/06/22 09:11:14;;;;;;;10.70;4.22;;;22.70;99.90;;;;;;5037532;28;20172;-70
2022/06/22 09:13:54;;;;;;;9.68;4.50;;;22.80;99.90;;;;;;5055554;28;20103;-89
2022/06/22 09:16:50;;;;;;;10.27;4.90;;;22.60;99.90;;;;;;5055540;28;20088;-89
2022/06/22 09:19:37;;;;;;;9.43;4.00;;;22.20;99.90;;;;;;5039060;28;20399;-71
2022/06/22 09:22:15;;;;;;;12.30;4.03;;;22.00;99.90;;;;;;5055329;28;20049;-69
2022/06/22 09:24:58;;;;;;;9.95;4.50;;;22.10;99.60;;;;;;5054982;28;20060;-69
2022/06/22 09:27:35;;;;;;;11.80;3.42;;;22.40;99.80;;;;;;5055162;28;20045;-70
2022/06/22 09:30:11;;;;;;;9.93;4.32;;;22.80;99.90;;;;;;5054382;28;20037;-70
2022/06/22 09:33:01;;;;;;;9.05;3.42;;;22.80;99.60;;;;;;5054940;28;20053;-70
2022/06/22 09:35:54;;;;;;;8.73;3.40;;;23.10;99.90;;;;;;5055126;28;20048;-71
2022/06/22 09:38:50;;;;;;;8.35;3.60;;;23.20;99.20;;;;;;5054827;28;20135;-70
2022/06/22 09:41:45;;;;;;;8.55;3.95;;;23.50;99.30;;;;;;5055072;28;20045;-68
2022/06/22 09:44:33;;;;;;;13.00;4.30;;;23.70;99.40;;;;;;5054064;28;20417;-71
2022/06/22 09:47:22;;;;;;;9.85;4.18;;;24.00;99.50;;;;;;5054611;28;20464;-71
2022/06/22 09:50:00;;;;;;;8.88;3.80;;;24.00;99.40;;;;;;5054665;28;20488;-71
2022/06/22 09:52:47;;;;;;;8.07;4.70;;;24.40;99.50;;;;;;5054452;28;20527;-71
2022/06/22 09:58:51;;;;;;;12.05;4.70;;;24.20;98.80;;;;;;5054474;28;20060;-71
2022/06/22 10:01:20;;;;;;;10.52;5.13;;;24.50;99.30;;;;;;5053001;28;20055;-71
2022/06/22 10:04:08;;;;;;;9.98;3.90;;;24.40;98.90;;;;;;5054369;28;20128;-71
2022/06/22 10:06:36;;;;;;;9.90;4.47;;;24.40;99.00;;;;;;5054322;28;20041;-71
2022/06/22 10:09:19;;;;;;;9.82;4.03;;;24.40;99.10;;;;;;5053909;28;20136;-71
2022/06/22 10:12:02;;;;;;;11.70;4.32;;;24.60;99.30;;;;;;5054766;28;20045;-70
2022/06/22 10:14:43;;;;;;;11.10;4.47;;;24.30;99.20;;;;;;5036641;28;20045;-70
2022/06/22 10:17:11;;;;;;;11.20;4.07;;;23.80;99.40;;;;;;5053446;28;20088;-71
2022/06/22 10:20:08;;;;;;;12.85;5.03;;;23.40;99.30;;;;;;5054130;28;20049;-70
2022/06/22 10:22:43;;;;;;;;;;;23.50;98.90;;;;;;5054798;28;20095;-72
2022/06/22 10:25:30;;;;;;;11.60;4.80;;;23.50;98.80;;;;;;5053175;28;19920;-72
2022/06/22 10:27:58;;;;;;;9.73;4.30;;;23.70;99.30;;;;;;5054238;28;20055;-71
2022/06/22 10:30:46;;;;;;;12.32;4.20;;;24.10;98.90;;;;;;5053544;28;20060;-71
2022/06/22 10:33:27;;;;;;;7.95;4.03;;;24.20;98.90;;;;;;5054076;28;20049;-71
2022/06/22 10:36:34;;;;;;;12.93;3.97;;;24.50;98.80;;;;;;5053958;28;20080;-71
2022/06/22 10:39:42;;;;;;;11.30;3.50;;;24.90;98.50;;;;;;5042909;28;20057;-71
2022/06/22 10:45:26;;;;;;;9.00;3.20;;;24.80;98.70;;;;;;5053713;28;20057;-69
2022/06/22 10:48:16;;;;;;;9.13;3.42;;;25.30;98.80;;;;;;5053563;28;20103;-69
2022/06/22 10:50:54;;;;;;;10.90;3.25;;;25.40;99.60;;;;;;5053564;28;20048;-71
2022/06/22 10:53:38;;;;;;;7.90;3.80;;;25.60;98.70;;;;;;5053662;28;20045;-68
2022/06/22 10:56:43;;;;;;;10.02;3.55;;;25.60;98.50;;;;;;5053567;28;20395;-68
2022/06/22 10:59:53;;;;;;;8.73;3.28;;;25.50;98.50;;;;;;5053416;28;20049;-72
2022/06/22 11:02:52;;;;;;;7.32;3.15;;;25.80;98.40;;;;;;5053715;28;20396;-72
2022/06/22 11:05:36;;;;;;;8.52;3.25;;;26.00;98.60;;;;;;5052416;28;20368;-72
2022/06/22 11:08:23;;;;;;;10.18;3.30;;;26.10;98.70;;;;;;5053565;28;20049;-70
2022/06/22 11:11:15;;;;;;;9.30;3.20;;;26.00;98.60;;;;;;5053272;28;20037;-70
2022/06/22 11:13:48;;;;;;;5.63;2.92;;;25.40;98.30;;;;;;5052858;28;20111;-70
2022/06/22 11:16:52;;;;;;;7.53;3.10;;;25.80;98.80;;;;;;5052133;28;20467;-70
2022/06/22 11:19:31;;;;;;;4.70;3.10;;;26.50;98.50;;;;;;5053235;28;20484;-70
2022/06/22 11:21:59;;;;;;;10.48;3.47;;;27.00;98.30;;;;;;5053328;28;20131;-71
2022/06/22 11:24:56;;;;;;;6.78;3.03;;;27.10;97.90;;;;;;5052191;28;20051;-71
2022/06/22 11:33:35;;;;;;;8.27;2.83;;;27.10;98.10;;;;;;5057565;28;20092;-72
2022/06/22 11:36:16;;;;;;;10.18;3.67;;;27.30;98.20;;;;;;5057148;28;20051;-72
2022/06/22 11:38:52;;;;;;;6.10;3.10;;;27.30;98.00;;;;;;5057207;28;20095;-72
2022/06/22 11:41:47;;;;;;;7.70;2.83;;;26.40;97.30;;;;;;5057271;28;20186;-71
2022/06/22 11:44:25;;;;;;;5.32;2.65;;;26.60;97.60;;;;;;5057017;28;20067;-72
2022/06/22 11:46:55;;;;;;;7.25;2.95;;;26.90;97.40;;;;;;5057124;28;20057;-71
2022/06/22 11:49:39;;;;;;;5.07;2.90;;;26.90;97.50;;;;;;5056945;28;20048;-72
2022/06/22 11:52:20;;;;;;;7.30;3.28;;;26.70;97.20;;;;;;5056851;28;20052;-72
2022/06/22 11:55:23;;;;;;;10.55;3.75;;;27.00;97.50;;;;;;5057189;28;20401;-72
2022/06/22 11:57:55;;;;;;;8.15;3.15;;;27.40;97.90;;;;;;5056689;28;20396;-71
2022/06/22 12:00:45;;;;;;;7.90;2.92;;;27.50;97.40;;;;;;5056485;28;20396;-72
2022/06/22 12:03:35;;;;;;;7.18;2.70;;;27.60;96.60;;;;;;5056953;28;20087;-72
2022/06/22 12:06:05;;;;;;;10.15;3.05;;;27.40;97.10;;;;;;5056533;28;20052;-72
2022/06/22 12:08:40;;;;;;;9.75;3.22;;;27.70;97.30;;;;;;5055720;28;20056;-72
2022/06/22 12:11:09;;;;;;;9.77;4.20;;;27.90;97.80;;;;;;5056522;28;20048;-72
2022/06/22 12:13:35;;;;;;;7.28;3.17;;;27.90;97.70;;;;;;5056591;28;20045;-72
2022/06/22 12:16:06;;;;;;;10.60;3.30;;;28.20;98.10;;;;;;5056192;28;20068;-72
2022/06/22 12:18:54;;;;;;;8.43;3.42;;;28.30;97.20;;;;;;5056367;28;20045;-72
2022/06/22 12:21:39;;;;;;;9.13;3.30;;;28.30;97.00;;;;;;5056688;28;20048;-72
2022/06/22 12:24:14;;;;;;;9.85;3.00;;;28.30;97.40;;;;;;5056511;28;20048;-71
2022/06/22 12:26:40;;;;;;;6.38;2.92;;;27.90;97.50;;;;;;5055116;28;20045;-72
2022/06/22 12:29:29;;;;;;;8.98;3.22;;;28.00;97.60;;;;;;5055272;28;20183;-72
2022/06/22 12:32:02;;;;;;;7.68;3.13;;;28.20;97.30;;;;;;5054730;28;20061;-72
2022/06/22 12:34:41;;;;;;;8.25;3.30;;;28.50;97.30;;;;;;5054823;28;20098;-72
2022/06/22 12:37:19;;;;;;;9.57;3.42;;;28.60;97.50;;;;;;5054547;28;20041;-73
2022/06/22 12:39:52;;;;;;;8.27;3.75;;;28.70;97.10;;;;;;5053657;28;20045;-73
2022/06/22 12:42:39;;;;;;;7.18;3.30;;;28.20;97.40;;;;;;5054993;28;20055;-72
2022/06/22 12:45:47;;;;;;;7.60;3.03;;;28.10;97.40;;;;;;5053877;28;20053;-72
2022/06/22 12:48:26;;;;;;;9.35;2.90;;;28.50;97.70;;;;;;5054955;28;20487;-72
2022/06/22 12:51:17;;;;;;;8.07;3.60;;;28.30;97.60;;;;;;5053477;28;20555;-72
2022/06/22 12:53:52;;;;;;;6.78;3.10;;;28.60;97.10;;;;;;5054491;28;20052;-72
2022/06/22 12:56:29;;;;;;;10.18;3.28;;;28.70;97.00;;;;;;5054732;28;20131;-72
2022/06/22 12:58:55;;;;;;;6.20;3.30;;;29.00;97.10;;;;;;5054476;28;20052;-72
2022/06/22 13:01:21;;;;;;;8.05;3.45;;;28.40;96.60;;;;;;5054255;28;20041;-72
2022/06/22 13:03:56;;;;;;;8.05;3.10;;;28.30;96.80;;;;;;5054267;28;20518;-72
2022/06/22 13:06:24;;;;;;;8.68;3.65;;;28.80;97.10;;;;;;5054452;28;20041;-72
2022/06/22 13:08:51;;;;;;;7.43;3.45;;;29.00;97.20;;;;;;5054214;28;20488;-72
2022/06/22 13:11:21;;;;;;;6.03;2.90;;;28.70;96.70;;;;;;5054269;28;20045;-72
2022/06/22 13:13:52;;;;;;;7.72;3.50;;;29.00;97.00;;;;;;5054434;28;20411;-72
2022/06/22 13:16:42;;;;;;;6.18;2.60;;;28.70;96.90;;;;;;5053464;28;20049;-72
2022/06/22 13:19:28;;;;;;;9.60;3.28;;;29.10;97.50;;;;;;5054358;28;20143;-73
2022/06/22 13:22:03;;;;;;;11.68;3.28;;;29.50;96.90;;;;;;5054454;28;20400;-72
2022/06/22 13:24:49;;;;;;;10.30;3.27;;;29.80;97.00;;;;;;5053030;28;20053;-72
2022/06/22 13:27:55;;;;;;;5.90;2.83;;;29.90;96.80;;;;;;5052952;28;20052;-72
2022/06/22 13:30:41;;;;;;;9.23;2.90;;;29.60;96.90;;;;;;5015090;28;1084538;-74
2022/06/22 13:33:24;;;;;;;4.68;2.30;;;29.30;96.70;;;;;;5053966;28;20459;-74
2022/06/22 13:36:07;;;;;;;10.13;3.67;;;28.90;97.40;;;;;;5055139;28;20045;-74
2022/06/22 13:38:44;;;;;;;7.90;3.40;;;28.60;96.90;;;;;;5053936;28;20052;-74
2022/06/22 13:41:31;;;;;;;8.43;2.85;;;28.50;97.00;;;;;;5055143;28;20134;-74
2022/06/22 13:44:06;;;;;;;8.52;3.13;;;28.90;96.90;;;;;;5054666;28;20102;-74
2022/06/22 13:46:57;;;;;;;7.63;2.53;;;29.40;96.90;;;;;;5054919;28;20041;-84
2022/06/22 13:49:41;;;;;;;7.22;2.78;;;29.20;97.20;;;;;;5070611;28;20120;-86
2022/06/22 13:52:29;;;;;;;8.25;3.30;;;28.70;96.90;;;;;;5052683;28;20504;-73
2022/06/22 13:55:00;;;;;;;9.18;3.15;;;27.90;97.50;;;;;;5054143;28;20052;-73
2022/06/22 13:57:46;;;;;;;8.00;2.95;;;28.10;97.30;;;;;;5053723;28;20103;-72
2022/06/22 14:00:30;;;;;;;6.55;2.65;;;28.70;96.90;;;;;;5053375;28;20053;-73
2022/06/22 14:03:03;;;;;;;6.82;2.47;;;29.10;97.30;;;;;;5053710;28;20057;-73
2022/06/22 14:05:44;;;;;;;7.50;3.05;;;29.40;97.10;;;;;;5054564;28;20091;-94
2022/06/22 14:08:34;;;;;;;6.18;2.55;;;29.50;97.00;;;;;;5054273;28;20132;-74